sensor_id;sensor_type;location;lat;lon;timestamp;temperature;humidity
23403;DHT22;11874;48.228;11.684;2023-03-05T09:09:38;5.50;99.90
23403;DHT22;11874;48.228;11.684;2023-03-05T09:12:07;4.30;99.70
23403;DHT22;11874;48.228;11.684;2023-03-05T09:14:38;4.30;99.80
23403;DHT22;11874;48.228;11.684;2023-03-05T09:17:06;4.30;99.80
23403;DHT22;11874;48.228;11.684;2023-03-05T09:19:34;4.40;99.90
23403;DHT22;11874;48.228;11.684;2023-03-05T09:22:02;4.40;99.80
23403;DHT22;11874;48.228;11.684;2023-03-05T13:24:36;5.00;98.60
23403;DHT22;11874;48.228;11.684;2023-03-05T13:27:18;5.00;98.90
23403;DHT22;11874;48.228;11.684;2023-03-05T13:29:50;5.00;98.90
23403;DHT22;11874;48.228;11.684;2023-03-05T13:32:24;5.00;99.20
23403;DHT22;11874;48.228;11.684;2023-03-05T13:34:54;5.00;98.70
23403;DHT22;11874;48.228;11.684;2023-03-05T13:37:24;5.00;98.50
23403;DHT22;11874;48.228;11.684;2023-03-05T13:39:56;5.00;98.50
23403;DHT22;11874;48.228;11.684;2023-03-05T13:42:26;5.00;98.40
23403;DHT22;11874;48.228;11.684;2023-03-05T13:44:56;5.00;98.50
23403;DHT22;11874;48.228;11.684;2023-03-05T13:47:30;5.10;98.60
23403;DHT22;11874;48.228;11.684;2023-03-05T13:50:00;5.10;98.70
23403;DHT22;11874;48.228;11.684;2023-03-05T13:52:31;5.10;98.50
23403;DHT22;11874;48.228;11.684;2023-03-05T13:55:02;5.10;98.60
23403;DHT22;11874;48.228;11.684;2023-03-05T13:57:36;5.10;98.60
23403;DHT22;11874;48.228;11.684;2023-03-05T14:00:22;5.10;98.70
23403;DHT22;11874;48.228;11.684;2023-03-05T14:02:51;5.10;98.60
23403;DHT22;11874;48.228;11.684;2023-03-05T14:05:19;5.10;98.60
23403;DHT22;11874;48.228;11.684;2023-03-05T14:07:48;5.20;98.60
23403;DHT22;11874;48.228;11.684;2023-03-05T14:10:32;5.20;98.50
23403;DHT22;11874;48.228;11.684;2023-03-05T14:13:03;5.20;98.60
23403;DHT22;11874;48.228;11.684;2023-03-05T14:15:33;5.20;98.50
23403;DHT22;11874;48.228;11.684;2023-03-05T14:18:16;5.20;98.30
23403;DHT22;11874;48.228;11.684;2023-03-05T14:21:03;5.20;98.20
23403;DHT22;11874;48.228;11.684;2023-03-05T14:23:34;5.20;98.20
23403;DHT22;11874;48.228;11.684;2023-03-05T14:26:34;5.20;98.30
23403;DHT22;11874;48.228;11.684;2023-03-05T14:29:11;5.30;98.30
23403;DHT22;11874;48.228;11.684;2023-03-05T14:31:46;5.30;98.30
23403;DHT22;11874;48.228;11.684;2023-03-05T14:34:20;5.20;98.10
23403;DHT22;11874;48.228;11.684;2023-03-05T14:36:49;5.20;98.20
23403;DHT22;11874;48.228;11.684;2023-03-05T14:39:37;5.20;98.40
23403;DHT22;11874;48.228;11.684;2023-03-05T14:42:29;5.20;98.50
23403;DHT22;11874;48.228;11.684;2023-03-05T14:44:59;5.30;98.70
23403;DHT22;11874;48.228;11.684;2023-03-05T14:47:27;5.20;98.90
23403;DHT22;11874;48.228;11.684;2023-03-05T14:49:55;5.30;98.70
23403;DHT22;11874;48.228;11.684;2023-03-05T14:52:24;5.20;98.50
23403;DHT22;11874;48.228;11.684;2023-03-05T14:54:53;5.20;98.60
23403;DHT22;11874;48.228;11.684;2023-03-05T14:57:26;5.20;98.60
23403;DHT22;11874;48.228;11.684;2023-03-05T14:59:56;5.20;98.50
23403;DHT22;11874;48.228;11.684;2023-03-05T15:02:25;5.20;98.40
23403;DHT22;11874;48.228;11.684;2023-03-05T15:04:53;5.20;98.50
23403;DHT22;11874;48.228;11.684;2023-03-05T15:07:24;5.20;98.40
23403;DHT22;11874;48.228;11.684;2023-03-05T15:09:53;5.20;98.20
23403;DHT22;11874;48.228;11.684;2023-03-05T15:12:21;5.20;98.10
23403;DHT22;11874;48.228;11.684;2023-03-05T15:14:50;5.20;97.80
23403;DHT22;11874;48.228;11.684;2023-03-05T15:17:22;5.10;97.70
23403;DHT22;11874;48.228;11.684;2023-03-05T15:19:50;5.10;97.70
23403;DHT22;11874;48.228;11.684;2023-03-05T15:22:19;5.20;97.50
23403;DHT22;11874;48.228;11.684;2023-03-05T15:24:47;5.10;97.30
23403;DHT22;11874;48.228;11.684;2023-03-05T15:27:15;5.20;97.30
23403;DHT22;11874;48.228;11.684;2023-03-05T15:29:43;5.10;97.20
23403;DHT22;11874;48.228;11.684;2023-03-05T15:32:10;5.10;97.30
23403;DHT22;11874;48.228;11.684;2023-03-05T15:34:40;6.50;97.50
23403;DHT22;11874;48.228;11.684;2023-03-05T15:37:08;5.10;97.10
23403;DHT22;11874;48.228;11.684;2023-03-05T15:39:36;5.20;97.30
23403;DHT22;11874;48.228;11.684;2023-03-05T15:42:04;5.20;97.10
23403;DHT22;11874;48.228;11.684;2023-03-05T15:44:32;5.20;97.00
23403;DHT22;11874;48.228;11.684;2023-03-05T15:47:00;5.40;97.10
23403;DHT22;11874;48.228;11.684;2023-03-05T15:49:28;5.20;97.00
23403;DHT22;11874;48.228;11.684;2023-03-05T15:51:57;5.10;96.70
23403;DHT22;11874;48.228;11.684;2023-03-05T15:54:25;6.20;97.00
23403;DHT22;11874;48.228;11.684;2023-03-05T15:56:53;5.20;96.70
